Airfield :
LOGIN :

Register | Disclaimer

   EN    FR    IT 

 










Legend :    VFR   Marginal VFR   IFR   Intensive IFR   Very Intensive IFR
Visi :
Ceiling :
>= 8 km
>= 3000ft
5 to 8 km
1000 to 3000 ft
1500m to 5 km
500 to 1000 ft
800 to 1500m
200 to 500 ft
< 800m
< 200 ft
Symbols :   Thunderstorms  Fog  Heavy snow  Heavy precipitations  Wind > 20 kt
SIGMETs :     Misc.  Thunderstorms  Icing  Turbulence  Mountain Waves  Volcanic Ashes






- Airport Elevation : -15 ft
- IATA code : RTM


EHRD - Rotterdam Zestienhoven

CURRENT METAR :
  • 170625Z AUTO 19006KT 140V230 4400 BR NSC 16/15 Q1015 BECMG 2000 BKN004

EXPIRED METARs :
  • 170555Z AUTO 19004KT 120V230 4400 BR NSC 15/14 Q1015 BECMG 2000 BKN004
  • 170525Z AUTO 20004KT 140V240 4700 BR NSC 16/14 Q1015 BECMG 2000 BKN004
  • 170455Z AUTO 18005KT 4600 BR NSC 16/15 Q1015 BECMG 2000 BKN004
  • 170425Z AUTO 17005KT 4600 BR NSC 16/15 Q1015 BECMG 2000 BKN004
  • 170355Z AUTO 16005KT 4900 BR NSC 16/15 Q1015 TEMPO 4500
  • 170325Z AUTO 16004KT 5000 BR NSC 16/15 Q1016 TEMPO 4500

TAF TAF EHRD
Valid from the 17 at 06:00 until the 18 at 12:00 UTC


170455Z 1706/1812 23003KT 2500 BR BKN004
PROB30 1706/1708 1200 BKN001
BECMG 1706/1709 25010KT 9999 NSW SCT018
BECMG 1720/1722 VRB02KT 6000 MIFG NSC
BECMG 1722/1724 1500 BCFG
PROB40 1800/1807 0500 FG
PROB30
TEMPO 1800/1806 0250 FG OVC000
BECMG 1807/1810 11008KT 9999 NSW SCT020



MET'MAP, your aeronautical weather chart ! - Copyright ORBIFLY December 2007 - Disclaimer

ORBIFLY MET'MAP TEAM :

Programming & Development : Alexandra Zaïnal
Concept & original design : Baudouin d'Aumeries
Assistance for programming : Marc-Olivier Méhu
Technical & hardware support : Manuel Goepfert

Contact : metmap@orbifly.com




SOURCES & CREDITS :

   NOAA